Terminal Aerodrome Forecast
Issued by NWS Nashville, TN

Home | Current Version | Previous Version | Text Only | Print | Product List | Glossary On
Versions: 1 2 3 4 5 6 7 8 9 10 11 12 13 14 15 16 17 18 19 20 21 22 23 24
000
FTUS44 KOHX 212329
TAFCSV
TAF
KCSV 212329Z 2200/2224 18006KT 6SM -RA BR OVC040
     FM220200 15004KT 4SM -RA BR OVC015
     FM220500 13003KT 2SM -RA BR OVC007
     FM220800 00000KT 1SM -RA BR OVC003
     FM221700 11004KT 3SM BR VCSH OVC007=

USA.gov is the U.S. government's official web portal to all federal, state and local government web resources and services.